Time;durP1;ratioP1;P1;durP2;ratioP2;P2;SDS_P1;SDS_P2;PMS_P1;PMS_P2;Temp;Humidity;BMP_temperature;BMP_pressure;BME280_temperature;BME280_humidity;BME280_pressure;Samples;Min_cycle;Max_cycle;Signal;HPM_P1;HPM_P2
2023/02/04 00:02:59;;;;;;;1.98;0.85;;;4.60;99.90;;;;;;8232808;28;20117;-79
2023/02/04 00:07:00;;;;;;;0.80;0.70;;;4.60;99.90;;;;;;8233847;28;20030;-79
2023/02/04 00:11:00;;;;;;;1.70;0.98;;;4.60;99.90;;;;;;8248681;28;20026;-79
2023/02/04 00:15:01;;;;;;;1.55;1.00;;;4.50;99.90;;;;;;8236824;28;20039;-79
2023/02/04 00:19:01;;;;;;;1.60;0.88;;;4.60;99.90;;;;;;8234081;28;20035;-80
2023/02/04 00:23:02;;;;;;;1.02;0.93;;;4.70;99.90;;;;;;8223603;28;20054;-79
2023/02/04 00:27:04;;;;;;;1.63;0.90;;;4.60;99.90;;;;;;8251225;28;20030;-78
2023/02/04 00:31:05;;;;;;;1.23;0.85;;;4.60;99.90;;;;;;8243308;28;20499;-79
2023/02/04 00:35:06;;;;;;;0.88;0.70;;;4.60;99.90;;;;;;8218481;28;20046;-80
2023/02/04 00:39:06;;;;;;;1.27;0.88;;;4.50;99.90;;;;;;8242237;28;20031;-80
2023/02/04 00:43:07;;;;;;;0.80;0.50;;;4.60;99.90;;;;;;8248972;28;20030;-78
2023/02/04 00:47:07;;;;;;;1.88;1.15;;;4.60;99.90;;;;;;8249318;28;20054;-79
2023/02/04 00:51:08;;;;;;;1.10;1.00;;;4.50;99.90;;;;;;8238057;28;20023;-79
2023/02/04 00:55:10;;;;;;;1.52;1.17;;;4.50;99.90;;;;;;8240837;28;20050;-79
2023/02/04 00:59:11;;;;;;;1.23;0.93;;;4.50;99.90;;;;;;8227132;28;20031;-80
2023/02/04 01:03:11;;;;;;;1.50;0.90;;;4.40;99.90;;;;;;8229226;28;20399;-79
2023/02/04 01:07:12;;;;;;;1.30;0.90;;;4.50;99.90;;;;;;8206984;28;20612;-80
2023/02/04 01:11:13;;;;;;;1.00;0.82;;;4.60;99.90;;;;;;8223211;28;20023;-79
2023/02/04 01:15:13;;;;;;;1.30;0.75;;;4.50;99.90;;;;;;8221421;28;20080;-80
2023/02/04 01:19:14;;;;;;;1.23;1.05;;;4.60;99.90;;;;;;8222449;28;20089;-79
2023/02/04 01:23:14;;;;;;;1.67;0.90;;;4.70;99.90;;;;;;8228603;28;20038;-81
2023/02/04 01:27:15;;;;;;;1.50;1.20;;;4.70;99.90;;;;;;8255729;28;20034;-79
2023/02/04 01:31:16;;;;;;;1.50;1.00;;;4.60;99.90;;;;;;8243334;28;20061;-80
2023/02/04 01:35:16;;;;;;;1.60;1.00;;;4.60;99.90;;;;;;8236821;28;20026;-80
2023/02/04 01:39:17;;;;;;;1.08;0.93;;;4.60;99.90;;;;;;8252899;28;20030;-80
2023/02/04 01:43:21;;;;;;;0.98;0.90;;;4.60;99.90;;;;;;8223743;28;20037;-79
2023/02/04 01:47:23;;;;;;;0.98;0.77;;;4.60;99.90;;;;;;8237228;28;20391;-79
2023/02/04 01:51:27;;;;;;;1.17;0.90;;;4.70;99.90;;;;;;8232341;28;20173;-79
2023/02/04 01:55:30;;;;;;;0.75;0.52;;;4.60;99.90;;;;;;8238240;28;20686;-80
2023/02/04 01:59:32;;;;;;;1.10;0.88;;;4.60;99.90;;;;;;8229280;28;20023;-79
2023/02/04 02:03:33;;;;;;;1.20;0.93;;;4.60;99.90;;;;;;8217436;28;20411;-78
2023/02/04 02:07:34;;;;;;;1.65;1.10;;;4.60;99.90;;;;;;8209047;28;20033;-79
2023/02/04 02:11:34;;;;;;;1.25;1.10;;;4.50;99.90;;;;;;8213852;28;20546;-80
2023/02/04 02:15:35;;;;;;;1.80;1.02;;;4.60;99.90;;;;;;8215938;28;20023;-80
2023/02/04 02:19:37;;;;;;;1.13;1.00;;;4.60;99.90;;;;;;8237442;28;20101;-79
2023/02/04 02:23:56;;;;;;;1.65;1.15;;;4.50;99.90;;;;;;8219329;28;20054;-79
2023/02/04 02:27:57;;;;;;;1.38;1.13;;;4.60;99.90;;;;;;8225602;28;20037;-79
2023/02/04 02:31:58;;;;;;;1.58;1.23;;;4.50;99.90;;;;;;8225702;28;20031;-79
2023/02/04 02:35:59;;;;;;;1.63;1.30;;;4.50;99.90;;;;;;8235743;28;20034;-79
2023/02/04 02:40:00;;;;;;;1.55;1.33;;;4.50;99.90;;;;;;8228509;28;20045;-79
2023/02/04 02:44:02;;;;;;;1.33;1.00;;;4.70;99.90;;;;;;8246119;28;20440;-80
2023/02/04 02:48:02;;;;;;;1.65;1.23;;;4.60;99.90;;;;;;8234099;28;20031;-79
2023/02/04 02:52:03;;;;;;;0.40;0.40;;;4.60;99.90;;;;;;8256163;28;20034;-80
2023/02/04 02:56:04;;;;;;;1.23;0.55;;;4.60;99.90;;;;;;8237911;28;20034;-79
2023/02/04 03:00:20;;;;;;;1.27;0.90;;;4.60;99.90;;;;;;8232089;28;20057;-80
2023/02/04 03:04:21;;;;;;;1.10;0.90;;;4.70;99.90;;;;;;8215006;28;20027;-80
2023/02/04 03:08:22;;;;;;;1.42;0.60;;;4.70;99.90;;;;;;8222923;28;20034;-81
2023/02/04 03:12:22;;;;;;;0.90;0.80;;;4.70;99.90;;;;;;8217948;28;20027;-81
2023/02/04 03:16:23;;;;;;;1.17;0.70;;;4.70;99.90;;;;;;8245529;28;20085;-79
2023/02/04 03:20:25;;;;;;;1.08;0.75;;;4.70;99.90;;;;;;8224729;28;20031;-81
2023/02/04 03:24:26;;;;;;;0.90;0.75;;;4.70;99.90;;;;;;8232740;28;20030;-81
2023/02/04 03:28:26;;;;;;;0.90;0.77;;;4.80;99.90;;;;;;8239304;28;20041;-82
2023/02/04 03:32:27;;;;;;;1.70;0.90;;;4.70;99.90;;;;;;8227279;28;20019;-81
2023/02/04 03:36:27;;;;;;;1.20;0.80;;;4.70;99.90;;;;;;8252481;28;20117;-82
2023/02/04 03:40:28;;;;;;;0.63;0.50;;;4.80;99.90;;;;;;8243687;28;20034;-82
2023/02/04 03:44:29;;;;;;;1.15;0.75;;;4.80;99.90;;;;;;8241319;28;20029;-83
2023/02/04 03:48:29;;;;;;;0.75;0.65;;;4.90;99.90;;;;;;8226111;28;20023;-80
2023/02/04 03:52:30;;;;;;;0.95;0.70;;;4.90;99.90;;;;;;8248112;28;20014;-83
2023/02/04 03:56:30;;;;;;;0.30;0.30;;;4.80;99.90;;;;;;8248591;28;20018;-82
2023/02/04 04:00:31;;;;;;;0.38;0.38;;;4.70;99.90;;;;;;8241648;28;20034;-83
2023/02/04 04:04:32;;;;;;;2.33;0.77;;;4.60;99.90;;;;;;8224099;28;20040;-82
2023/02/04 04:08:33;;;;;;;0.00;0.00;;;4.60;99.90;;;;;;8231756;28;20034;-82
2023/02/04 04:12:33;;;;;;;0.65;0.28;;;4.50;99.90;;;;;;8215948;28;20027;-81
2023/02/04 04:16:34;;;;;;;0.80;0.40;;;4.40;99.90;;;;;;8208982;28;20057;-81
2023/02/04 04:20:34;;;;;;;0.30;0.20;;;4.40;99.90;;;;;;8217714;28;20027;-81
2023/02/04 04:24:35;;;;;;;0.88;0.20;;;4.50;99.90;;;;;;8217827;28;20109;-82
2023/02/04 04:28:35;;;;;;;0.60;0.28;;;4.50;99.90;;;;;;8223659;28;20546;-82
2023/02/04 04:32:36;;;;;;;0.10;0.10;;;4.50;99.90;;;;;;8242948;28;20041;-82
2023/02/04 04:36:37;;;;;;;0.55;0.15;;;4.40;99.90;;;;;;8250074;28;20104;-82
2023/02/04 04:40:37;;;;;;;0.20;0.10;;;4.50;99.90;;;;;;8234635;28;20026;-81
2023/02/04 04:44:38;;;;;;;0.45;0.15;;;4.30;99.90;;;;;;8249566;28;20079;-81
2023/02/04 04:48:38;;;;;;;0.30;0.20;;;4.20;99.90;;;;;;8236841;28;20030;-82
2023/02/04 04:52:39;;;;;;;0.65;0.30;;;4.40;99.90;;;;;;8229791;28;20408;-81
2023/02/04 04:56:39;;;;;;;0.88;0.20;;;4.40;99.90;;;;;;8224264;28;20034;-80
2023/02/04 05:00:40;;;;;;;0.40;0.30;;;4.60;99.90;;;;;;8233427;28;20030;-82
2023/02/04 05:04:41;;;;;;;0.75;0.40;;;4.60;99.90;;;;;;8215414;28;20054;-81
2023/02/04 05:08:41;;;;;;;0.30;0.28;;;4.70;99.90;;;;;;8206664;28;20101;-81
2023/02/04 05:12:42;;;;;;;0.10;0.10;;;4.50;99.90;;;;;;8221146;28;20615;-81
2023/02/04 05:16:42;;;;;;;0.35;0.25;;;4.50;99.90;;;;;;8209743;28;20476;-83
2023/02/04 05:20:43;;;;;;;0.38;0.38;;;4.30;99.90;;;;;;8203509;28;20066;-81
2023/02/04 05:24:43;;;;;;;0.70;0.40;;;4.10;99.90;;;;;;8239437;28;20391;-81
2023/02/04 05:28:44;;;;;;;0.30;0.28;;;3.90;99.90;;;;;;8208021;28;20031;-82
2023/02/04 05:32:45;;;;;;;0.47;0.38;;;3.90;99.90;;;;;;8214419;28;20038;-79
2023/02/04 05:36:45;;;;;;;0.60;0.40;;;3.90;99.90;;;;;;8213520;28;20491;-81
2023/02/04 05:40:46;;;;;;;0.80;0.60;;;3.90;99.90;;;;;;8215776;28;20023;-81
2023/02/04 05:44:46;;;;;;;0.40;0.30;;;3.80;99.90;;;;;;8211899;28;20075;-82
2023/02/04 05:48:47;;;;;;;1.05;0.68;;;3.80;99.90;;;;;;8227525;28;20632;-83
2023/02/04 05:52:47;;;;;;;0.65;0.60;;;3.80;99.90;;;;;;8239865;28;20054;-83
2023/02/04 05:56:50;;;;;;;0.63;0.50;;;3.80;99.90;;;;;;8225940;28;20376;-83
2023/02/04 06:00:51;;;;;;;0.88;0.47;;;3.90;99.90;;;;;;8238897;28;20022;-83
2023/02/04 06:04:57;;;;;;;0.40;0.28;;;3.90;99.90;;;;;;8223992;28;20535;-82
2023/02/04 06:08:58;;;;;;;1.13;0.40;;;3.80;99.90;;;;;;8227338;28;20038;-83
2023/02/04 06:12:58;;;;;;;0.28;0.20;;;3.60;99.90;;;;;;8227696;28;20030;-83
2023/02/04 06:16:59;;;;;;;0.93;0.40;;;3.50;99.90;;;;;;8222544;28;20096;-82
2023/02/04 06:21:03;;;;;;;0.40;0.20;;;3.70;99.90;;;;;;8213427;28;20085;-83
2023/02/04 06:25:04;;;;;;;1.75;0.32;;;3.70;99.90;;;;;;8231207;28;20027;-83
2023/02/04 06:29:04;;;;;;;0.52;0.22;;;3.50;99.90;;;;;;8236607;28;20026;-83
2023/02/04 06:33:05;;;;;;;0.20;0.20;;;3.40;99.90;;;;;;8227634;28;20077;-83
2023/02/04 06:37:05;;;;;;;0.75;0.30;;;3.30;99.90;;;;;;8220097;28;20030;-83
2023/02/04 06:41:06;;;;;;;1.88;0.45;;;3.50;99.90;;;;;;8224763;28;20069;-83
2023/02/04 06:45:07;;;;;;;0.60;0.40;;;3.80;99.90;;;;;;8230656;28;20035;-81
2023/02/04 06:49:07;;;;;;;4.60;0.90;;;4.10;99.90;;;;;;8226211;28;20042;-82
2023/02/04 06:53:08;;;;;;;1.98;0.90;;;4.10;99.90;;;;;;8228231;28;20406;-83
2023/02/04 06:57:08;;;;;;;0.88;0.50;;;4.10;99.90;;;;;;8214035;28;20035;-81
2023/02/04 07:01:09;;;;;;;1.02;0.60;;;4.30;99.90;;;;;;8214416;28;20047;-82
2023/02/04 07:05:09;;;;;;;2.30;0.70;;;4.00;99.90;;;;;;8217185;28;20058;-86
2023/02/04 07:09:10;;;;;;;3.75;0.80;;;3.70;99.90;;;;;;8227418;28;20030;-86
2023/02/04 07:13:10;;;;;;;2.83;0.90;;;3.60;99.90;;;;;;8212695;28;20062;-86
2023/02/04 07:17:11;;;;;;;1.45;0.80;;;3.50;99.90;;;;;;8216193;28;20071;-86
2023/02/04 07:21:12;;;;;;;2.75;1.10;;;3.50;99.90;;;;;;8223839;28;20039;-85
2023/02/04 07:25:14;;;;;;;1.98;1.05;;;3.60;99.90;;;;;;8204567;28;20092;-84
2023/02/04 07:29:16;;;;;;;2.47;1.30;;;3.60;99.90;;;;;;8214780;28;20121;-86
2023/02/04 07:33:17;;;;;;;34.42;14.77;;;3.70;99.90;;;;;;8223687;28;20030;-85
2023/02/04 07:37:19;;;;;;;12.90;6.03;;;3.80;99.90;;;;;;8212895;28;20062;-84
2023/02/04 07:41:20;;;;;;;2.63;1.50;;;3.70;99.90;;;;;;8212873;28;20107;-85
2023/02/04 07:45:21;;;;;;;3.72;1.10;;;3.80;99.90;;;;;;8224296;28;20113;-84
2023/02/04 07:49:22;;;;;;;1.95;1.20;;;3.90;99.90;;;;;;8212218;28;20031;-84
2023/02/04 07:53:22;;;;;;;2.17;1.02;;;4.20;99.90;;;;;;8220229;28;20061;-85
2023/02/04 07:57:23;;;;;;;1.85;0.88;;;4.60;99.90;;;;;;8217285;28;20042;-83
2023/02/04 08:01:23;;;;;;;3.58;0.90;;;4.30;99.90;;;;;;8215270;28;20122;-85
2023/02/04 08:05:24;;;;;;;5.28;1.13;;;4.30;99.90;;;;;;8214759;28;20041;-83
2023/02/04 08:09:26;;;;;;;2.15;0.82;;;4.30;99.90;;;;;;8213117;28;20030;-84
2023/02/04 08:13:26;;;;;;;2.33;1.10;;;4.60;99.90;;;;;;8221810;28;20236;-83
2023/02/04 08:17:30;;;;;;;1.35;0.85;;;4.50;99.90;;;;;;8228204;28;20026;-84
2023/02/04 08:21:30;;;;;;;1.30;1.20;;;4.50;99.90;;;;;;8224646;28;20049;-84
2023/02/04 08:25:31;;;;;;;1.95;1.08;;;3.90;99.90;;;;;;8215662;28;20030;-83
2023/02/04 08:29:32;;;;;;;9.38;2.42;;;3.60;99.90;;;;;;8237570;28;20022;-83
2023/02/04 08:33:32;;;;;;;5.35;1.98;;;3.50;99.90;;;;;;8221372;28;20034;-84
2023/02/04 08:37:33;;;;;;;5.38;1.58;;;3.50;99.90;;;;;;8234024;28;20023;-83
2023/02/04 08:41:33;;;;;;;3.08;1.50;;;3.60;99.90;;;;;;8223511;28;20050;-84
2023/02/04 08:45:34;;;;;;;4.25;1.65;;;3.70;99.90;;;;;;8223243;28;20022;-83
2023/02/04 08:49:35;;;;;;;6.18;2.08;;;3.90;99.90;;;;;;8221833;28;20467;-82
2023/02/04 08:53:36;;;;;;;9.45;1.70;;;4.00;99.90;;;;;;8227017;28;20034;-83
2023/02/04 08:57:38;;;;;;;5.03;1.67;;;4.30;99.90;;;;;;8230443;28;20050;-82
2023/02/04 09:01:38;;;;;;;8.00;1.67;;;4.30;99.90;;;;;;8210771;28;20029;-81
2023/02/04 09:05:39;;;;;;;2.67;1.70;;;4.30;99.90;;;;;;8234712;28;20535;-82
2023/02/04 09:09:39;;;;;;;4.30;1.70;;;4.40;99.90;;;;;;8233613;28;20038;-82
2023/02/04 09:13:40;;;;;;;6.63;1.85;;;4.50;99.90;;;;;;8220388;28;20029;-82
2023/02/04 09:17:42;;;;;;;7.65;1.90;;;4.40;99.90;;;;;;8231576;28;20083;-82
2023/02/04 09:21:43;;;;;;;4.30;2.17;;;4.50;99.90;;;;;;8233146;28;20026;-82
2023/02/04 09:25:44;;;;;;;4.88;1.95;;;4.50;99.90;;;;;;8212368;28;20688;-82
2023/02/04 09:29:45;;;;;;;8.00;2.53;;;4.60;99.90;;;;;;8223363;28;20018;-83
2023/02/04 09:33:45;;;;;;;5.70;1.92;;;4.80;99.90;;;;;;8217035;28;20508;-83
2023/02/04 09:37:46;;;;;;;5.65;2.53;;;4.80;99.90;;;;;;8213138;28;20059;-83
2023/02/04 09:41:47;;;;;;;5.40;2.13;;;4.90;99.90;;;;;;8216875;28;20112;-82
2023/02/04 09:45:48;;;;;;;5.07;2.63;;;5.20;99.90;;;;;;8216827;28;20030;-85
2023/02/04 09:49:48;;;;;;;7.05;2.58;;;5.60;99.90;;;;;;8204914;28;20026;-82
2023/02/04 09:53:54;;;;;;;7.10;2.40;;;5.70;99.90;;;;;;8217056;28;20285;-82
2023/02/04 09:57:54;;;;;;;3.55;2.33;;;6.00;99.90;;;;;;8207254;28;20066;-83
2023/02/04 10:02:18;;;;;;;6.45;2.65;;;6.60;99.90;;;;;;8203245;28;20041;-82
2023/02/04 10:06:22;;;;;;;6.97;2.78;;;6.70;99.90;;;;;;8234466;28;20086;-82
2023/02/04 10:10:25;;;;;;;3.58;2.20;;;6.90;99.90;;;;;;8214374;28;20030;-83
2023/02/04 10:14:26;;;;;;;6.35;2.70;;;7.10;99.90;;;;;;8207369;28;20036;-82
2023/02/04 10:18:31;;;;;;;9.75;2.35;;;7.20;99.90;;;;;;8229125;28;20054;-82
2023/02/04 10:22:33;;;;;;;6.55;2.08;;;6.90;99.90;;;;;;8227151;28;20410;-82
2023/02/04 10:26:33;;;;;;;5.57;2.42;;;6.50;99.90;;;;;;8218592;28;20107;-82
2023/02/04 10:30:40;;;;;;;7.05;2.08;;;6.30;99.90;;;;;;8243720;28;20305;-83
2023/02/04 10:34:42;;;;;;;4.53;1.95;;;6.90;99.90;;;;;;8227999;28;20518;-83
2023/02/04 10:38:43;;;;;;;5.00;2.15;;;6.80;99.90;;;;;;8233092;28;20283;-83
2023/02/04 10:42:49;;;;;;;7.78;2.33;;;6.80;99.90;;;;;;8219914;28;20050;-83
2023/02/04 10:46:56;;;;;;;4.47;1.98;;;6.80;99.90;;;;;;8212136;28;20503;-84
2023/02/04 10:50:58;;;;;;;7.43;2.40;;;6.60;99.90;;;;;;8231269;28;20019;-83
2023/02/04 10:54:59;;;;;;;6.45;2.40;;;6.70;99.90;;;;;;8217589;28;20021;-84
2023/02/04 10:59:00;;;;;;;10.68;2.33;;;7.00;99.90;;;;;;8237963;28;20495;-83
2023/02/04 11:03:13;;;;;;;6.22;2.33;;;7.20;99.90;;;;;;8216114;28;20049;-84
2023/02/04 11:07:14;;;;;;;8.07;1.80;;;7.10;99.90;;;;;;8220832;28;20058;-84
2023/02/04 11:11:19;;;;;;;7.57;2.20;;;6.90;99.90;;;;;;8243008;28;20051;-82
2023/02/04 11:15:39;;;;;;;6.75;2.03;;;6.90;99.90;;;;;;8242577;28;20079;-84
2023/02/04 11:19:42;;;;;;;3.88;1.98;;;6.60;99.90;;;;;;8216335;28;20121;-84
2023/02/04 11:23:43;;;;;;;8.10;2.58;;;6.70;99.90;;;;;;8214029;28;20044;-84
2023/02/04 11:27:43;;;;;;;9.82;2.83;;;6.60;99.90;;;;;;8222954;28;20027;-84
2023/02/04 11:31:47;;;;;;;7.93;2.03;;;6.80;99.90;;;;;;8227985;28;20062;-83
2023/02/04 11:36:03;;;;;;;5.18;2.00;;;6.90;99.90;;;;;;8225361;28;20046;-84
2023/02/04 11:40:31;;;;;;;4.88;2.38;;;7.00;99.90;;;;;;8243133;28;20395;-83
2023/02/04 11:44:32;;;;;;;3.47;1.88;;;7.40;99.90;;;;;;8221893;28;20030;-83
2023/02/04 11:48:35;;;;;;;5.03;1.45;;;7.60;99.90;;;;;;8218851;28;20518;-83
2023/02/04 11:52:36;;;;;;;7.00;2.05;;;7.50;99.90;;;;;;8214671;28;20023;-83
2023/02/04 11:56:36;;;;;;;8.85;2.13;;;7.40;99.90;;;;;;8210283;28;20058;-83
2023/02/04 12:00:37;;;;;;;4.78;2.13;;;7.70;99.90;;;;;;8211352;28;20489;-83
2023/02/04 12:04:37;;;;;;;7.57;2.45;;;7.70;99.90;;;;;;8233260;28;20034;-84
2023/02/04 12:08:38;;;;;;;8.88;2.20;;;7.70;99.90;;;;;;8213406;28;20069;-83
2023/02/04 12:12:51;;;;;;;7.68;2.08;;;7.30;99.90;;;;;;8234067;28;20038;-83
2023/02/04 12:16:51;;;;;;;11.55;2.58;;;7.80;99.90;;;;;;8234571;28;20129;-81
2023/02/04 12:20:52;;;;;;;4.65;2.13;;;8.30;99.90;;;;;;8215994;28;20046;-83
2023/02/04 12:24:53;;;;;;;6.20;2.33;;;8.20;99.90;;;;;;8218847;28;20042;-81
2023/02/04 12:28:53;;;;;;;10.57;2.40;;;8.20;99.90;;;;;;8207586;28;20034;-81
2023/02/04 12:32:54;;;;;;;9.48;2.20;;;8.20;99.90;;;;;;8208651;28;20065;-83
2023/02/04 12:36:54;;;;;;;9.98;2.53;;;8.20;99.90;;;;;;8210506;28;20455;-83
2023/02/04 12:40:55;;;;;;;9.77;2.25;;;8.10;99.90;;;;;;8225967;28;20128;-81
2023/02/04 12:44:55;;;;;;;12.65;1.83;;;8.10;99.90;;;;;;8228920;28;20114;-83
2023/02/04 12:48:56;;;;;;;8.32;1.52;;;8.10;99.90;;;;;;8209551;28;20029;-82
2023/02/04 12:52:58;;;;;;;3.33;1.38;;;7.30;99.90;;;;;;8224787;28;20113;-83
2023/02/04 12:56:58;;;;;;;4.93;1.10;;;6.80;99.90;;;;;;8222833;28;20088;-83
2023/02/04 13:00:59;;;;;;;4.72;0.80;;;6.70;99.90;;;;;;8221247;28;20054;-83
2023/02/04 13:04:59;;;;;;;7.25;1.38;;;6.50;99.90;;;;;;8223055;28;20066;-84
2023/02/04 13:09:01;;;;;;;5.45;1.55;;;6.40;99.90;;;;;;8243953;28;20038;-81
2023/02/04 13:13:01;;;;;;;2.97;1.02;;;6.60;99.90;;;;;;8254165;28;20050;-83
2023/02/04 13:17:02;;;;;;;5.75;1.10;;;6.90;99.90;;;;;;8233153;28;20426;-82
2023/02/04 13:21:03;;;;;;;4.18;1.15;;;6.90;99.90;;;;;;8217176;28;20061;-81
2023/02/04 13:25:04;;;;;;;4.38;1.38;;;6.50;99.90;;;;;;8214976;28;20085;-82
2023/02/04 13:29:05;;;;;;;8.55;1.52;;;6.20;99.90;;;;;;8215583;28;20034;-82
2023/02/04 13:33:05;;;;;;;8.75;1.30;;;6.00;99.90;;;;;;8218944;28;20401;-82
2023/02/04 13:37:06;;;;;;;5.03;1.15;;;5.80;99.90;;;;;;8215221;28;20089;-84
2023/02/04 13:41:06;;;;;;;4.63;1.27;;;6.10;99.90;;;;;;8217458;28;20037;-82
2023/02/04 13:45:11;;;;;;;7.68;1.45;;;6.30;99.90;;;;;;8229873;28;20024;-84
2023/02/04 13:49:11;;;;;;;3.30;0.98;;;6.50;99.90;;;;;;8226947;28;20038;-84
2023/02/04 13:53:12;;;;;;;9.07;1.10;;;6.80;99.90;;;;;;8220548;28;20039;-82
2023/02/04 13:57:12;;;;;;;5.95;1.35;;;7.20;99.90;;;;;;8217794;28;20058;-83
2023/02/04 14:01:13;;;;;;;10.88;1.60;;;7.30;99.90;;;;;;8217831;28;20026;-82
2023/02/04 14:05:14;;;;;;;4.78;1.27;;;7.40;99.90;;;;;;8238012;28;20031;-81
2023/02/04 14:09:15;;;;;;;7.28;1.92;;;7.60;99.90;;;;;;8211128;28;20023;-81
2023/02/04 14:13:15;;;;;;;3.65;0.85;;;7.80;99.90;;;;;;8212897;28;20799;-81
2023/02/04 14:17:16;;;;;;;3.63;1.20;;;7.80;99.90;;;;;;8228295;28;20314;-81
2023/02/04 14:21:17;;;;;;;6.57;0.95;;;7.40;99.90;;;;;;8233784;28;20039;-80
2023/02/04 14:25:17;;;;;;;8.93;1.20;;;7.20;99.90;;;;;;8212779;28;20027;-81
2023/02/04 14:29:18;;;;;;;8.10;1.35;;;6.60;99.90;;;;;;8213112;28;20030;-83
2023/02/04 14:33:19;;;;;;;5.88;1.35;;;6.30;99.90;;;;;;8237848;28;20114;-82
2023/02/04 14:37:19;;;;;;;5.53;1.08;;;6.20;99.90;;;;;;8230612;28;20454;-82
2023/02/04 14:41:20;;;;;;;3.42;1.20;;;6.10;99.90;;;;;;8241089;28;20091;-83
2023/02/04 14:45:20;;;;;;;2.15;0.95;;;6.00;99.90;;;;;;8257425;28;20034;-82
2023/02/04 14:49:21;;;;;;;6.90;1.13;;;5.80;99.90;;;;;;8234909;28;20018;-82
2023/02/04 14:53:21;;;;;;;6.82;1.50;;;5.90;99.90;;;;;;8243773;28;20063;-82
2023/02/04 14:57:22;;;;;;;4.05;1.08;;;6.20;99.90;;;;;;8236649;28;20023;-82
2023/02/04 15:01:23;;;;;;;2.22;0.60;;;6.30;99.90;;;;;;8243036;28;20027;-83
2023/02/04 15:05:23;;;;;;;5.28;0.93;;;6.20;99.90;;;;;;8243881;28;20049;-83
2023/02/04 15:09:24;;;;;;;8.50;1.02;;;6.30;99.90;;;;;;8252256;28;20030;-83
2023/02/04 15:13:26;;;;;;;8.98;1.00;;;6.00;99.90;;;;;;8249563;28;20053;-82
2023/02/04 15:17:27;;;;;;;3.00;1.20;;;5.50;99.90;;;;;;8236349;28;20061;-83
2023/02/04 15:21:28;;;;;;;3.25;1.00;;;5.30;99.90;;;;;;8239974;28;20100;-82
2023/02/04 15:25:28;;;;;;;4.57;1.02;;;5.20;99.90;;;;;;8233278;28;20495;-82
2023/02/04 15:29:29;;;;;;;9.52;1.55;;;5.70;99.90;;;;;;8214480;28;20023;-82
2023/02/04 15:33:30;;;;;;;2.58;1.10;;;5.80;99.90;;;;;;8207254;28;20057;-81
2023/02/04 15:37:31;;;;;;;5.68;1.20;;;5.60;99.90;;;;;;8229211;28;20122;-82
2023/02/04 15:41:31;;;;;;;7.55;1.38;;;5.80;99.90;;;;;;8232053;28;20022;-81
2023/02/04 15:45:32;;;;;;;7.72;1.00;;;6.00;99.90;;;;;;8213791;28;20028;-81
2023/02/04 15:49:33;;;;;;;5.90;1.27;;;6.00;99.90;;;;;;8226669;28;20541;-81
2023/02/04 15:53:34;;;;;;;5.95;1.42;;;5.50;99.90;;;;;;8225435;28;20018;-82
2023/02/04 15:57:35;;;;;;;2.80;1.00;;;5.30;99.90;;;;;;8215784;28;20029;-81
2023/02/04 16:01:36;;;;;;;4.43;1.08;;;5.20;99.90;;;;;;8220477;28;20027;-82
2023/02/04 16:05:36;;;;;;;6.05;1.45;;;5.40;99.90;;;;;;8223267;28;20038;-80
2023/02/04 16:09:37;;;;;;;10.30;1.40;;;5.10;99.90;;;;;;8218975;28;20023;-80
2023/02/04 16:13:37;;;;;;;7.57;1.40;;;4.90;99.90;;;;;;8206922;28;20031;-82
2023/02/04 16:17:38;;;;;;;11.32;1.67;;;4.50;99.90;;;;;;8222888;28;20027;-80
2023/02/04 16:21:39;;;;;;;9.00;1.33;;;4.40;99.90;;;;;;8320461;23;20041;-82
2023/02/04 16:25:39;;;;;;;3.75;1.30;;;4.10;99.90;;;;;;8238091;28;20046;-81
2023/02/04 16:29:40;;;;;;;3.13;0.77;;;3.70;99.90;;;;;;8226709;28;20396;-83
2023/02/04 16:33:40;;;;;;;1.63;1.25;;;3.30;99.90;;;;;;8213100;28;20031;-82
2023/02/04 16:37:42;;;;;;;4.82;1.30;;;3.20;99.90;;;;;;8216365;28;20495;-86
2023/02/04 16:41:42;;;;;;;3.97;1.17;;;3.10;99.90;;;;;;8218044;28;20027;-86
2023/02/04 16:45:43;;;;;;;2.38;1.20;;;3.00;99.90;;;;;;8214402;28;20062;-86
2023/02/04 16:49:44;;;;;;;3.05;1.27;;;2.90;99.90;;;;;;8218053;28;20019;-86
2023/02/04 16:53:45;;;;;;;1.95;1.02;;;2.80;99.90;;;;;;8213296;28;20191;-79
2023/02/04 16:57:45;;;;;;;3.67;1.85;;;2.60;99.90;;;;;;8209879;28;20093;-78
2023/02/04 17:01:46;;;;;;;5.03;1.20;;;2.50;99.90;;;;;;8202414;28;20027;-79
2023/02/04 17:05:47;;;;;;;2.85;1.17;;;2.50;99.90;;;;;;8191857;28;20464;-79
2023/02/04 17:09:47;;;;;;;1.83;1.00;;;2.50;99.90;;;;;;8201496;28;20029;-78
2023/02/04 17:13:48;;;;;;;3.65;0.93;;;2.30;99.90;;;;;;8197516;28;20023;-79
2023/02/04 17:17:48;;;;;;;3.40;1.45;;;2.30;99.90;;;;;;8194012;28;20034;-77
2023/02/04 17:21:49;;;;;;;3.33;1.33;;;2.20;99.90;;;;;;8193880;28;20037;-78
2023/02/04 17:25:49;;;;;;;1.85;1.00;;;2.00;99.90;;;;;;8193921;28;20491;-78
2023/02/04 17:29:50;;;;;;;2.28;1.15;;;1.90;99.90;;;;;;8194367;28;20637;-77
2023/02/04 17:33:50;;;;;;;5.32;1.33;;;1.80;99.90;;;;;;8203920;28;20022;-78
2023/02/04 17:37:52;;;;;;;4.88;1.38;;;1.70;99.90;;;;;;8207072;28;20038;-78
2023/02/04 17:41:53;;;;;;;1.63;0.95;;;1.50;99.90;;;;;;8183627;28;20416;-78
2023/02/04 17:45:53;;;;;;;8.43;1.70;;;1.40;99.90;;;;;;8194705;28;20034;-78
2023/02/04 17:49:54;;;;;;;5.03;1.77;;;1.20;99.90;;;;;;8200543;28;20043;-78
2023/02/04 17:53:55;;;;;;;4.28;1.75;;;1.10;99.90;;;;;;8203311;28;20034;-78
2023/02/04 17:58:00;;;;;;;3.47;1.75;;;0.90;99.90;;;;;;8204558;28;20110;-78
2023/02/04 18:02:00;;;;;;;5.93;2.40;;;0.80;99.90;;;;;;8197827;28;20721;-80
2023/02/04 18:06:16;;;;;;;9.55;4.85;;;0.70;99.90;;;;;;8204276;28;20035;-78
2023/02/04 18:10:28;;;;;;;17.30;8.07;;;0.60;99.90;;;;;;8210028;28;20027;-77
2023/02/04 18:14:28;;;;;;;15.27;7.72;;;0.60;99.90;;;;;;8197960;28;20199;-78
2023/02/04 18:18:36;;;;;;;21.45;7.90;;;0.50;99.90;;;;;;8199036;28;20027;-78
2023/02/04 18:22:37;;;;;;;22.65;9.50;;;0.40;99.90;;;;;;8190888;28;20079;-77
2023/02/04 18:26:46;;;;;;;21.40;9.77;;;0.50;99.90;;;;;;8203917;28;20046;-79
2023/02/04 18:30:51;;;;;;;20.30;7.60;;;0.60;99.90;;;;;;8205388;28;20026;-78
2023/02/04 18:34:54;;;;;;;15.13;6.43;;;0.90;99.90;;;;;;8197453;28;21529;-77
2023/02/04 18:38:54;;;;;;;6.40;2.97;;;1.30;99.90;;;;;;8201164;28;20119;-78
2023/02/04 18:43:26;;;;;;;3.65;1.38;;;1.40;99.90;;;;;;8200977;28;20035;-77
2023/02/04 18:47:32;;;;;;;2.70;1.20;;;1.50;99.90;;;;;;8213755;28;20078;-78
2023/02/04 18:51:37;;;;;;;3.13;1.27;;;1.20;99.90;;;;;;8206424;28;20023;-78
2023/02/04 18:55:46;;;;;;;4.75;1.42;;;1.00;99.90;;;;;;8211091;28;20016;-78
2023/02/04 18:59:46;;;;;;;8.20;2.33;;;0.90;99.90;;;;;;8214503;28;20040;-78
2023/02/04 19:03:52;;;;;;;11.93;3.95;;;0.90;99.90;;;;;;8217212;28;20059;-78
2023/02/04 19:08:05;;;;;;;14.43;5.75;;;0.80;99.90;;;;;;8213486;28;20031;-79
2023/02/04 19:12:21;;;;;;;15.07;6.78;;;0.80;99.90;;;;;;8236277;28;20023;-79
2023/02/04 19:16:30;;;;;;;11.50;6.03;;;0.90;99.90;;;;;;8212599;28;20674;-78
2023/02/04 19:20:31;;;;;;;10.90;5.60;;;0.90;99.90;;;;;;8203061;28;20062;-78
2023/02/04 19:24:32;;;;;;;8.90;4.20;;;1.00;99.90;;;;;;8222458;28;20030;-79
2023/02/04 19:28:37;;;;;;;12.90;4.00;;;1.10;99.90;;;;;;8200752;28;20039;-78
2023/02/04 19:32:44;;;;;;;5.07;2.45;;;1.50;99.90;;;;;;8206619;28;20126;-78
2023/02/04 19:36:45;;;;;;;3.97;2.10;;;1.20;99.90;;;;;;8210172;28;20027;-78
2023/02/04 19:40:49;;;;;;;6.70;2.83;;;1.20;99.90;;;;;;8207494;28;20031;-77
2023/02/04 19:44:50;;;;;;;8.65;4.07;;;1.00;99.90;;;;;;8213565;28;20077;-78
2023/02/04 19:48:51;;;;;;;5.68;2.88;;;1.00;99.90;;;;;;8205137;28;20117;-79
2023/02/04 19:53:16;;;;;;;1.70;0.90;;;1.00;99.90;;;;;;8214751;28;20027;-78
2023/02/04 19:57:24;;;;;;;2.30;1.40;;;1.50;99.90;;;;;;8204716;28;20047;-78
2023/02/04 20:01:25;;;;;;;7.25;1.98;;;1.20;99.90;;;;;;8205630;28;20042;-78
2023/02/04 20:05:30;;;;;;;5.57;3.03;;;0.90;99.90;;;;;;8220842;28;20595;-79
2023/02/04 20:09:32;;;;;;;8.45;3.95;;;0.80;99.90;;;;;;8202491;28;20656;-79
2023/02/04 20:13:33;;;;;;;9.18;4.72;;;0.80;99.90;;;;;;8200639;28;20023;-79
2023/02/04 20:17:49;;;;;;;10.73;4.40;;;0.80;99.90;;;;;;8207048;28;20106;-79
2023/02/04 20:22:16;;;;;;;4.43;2.30;;;0.80;99.90;;;;;;8207314;28;20031;-78
2023/02/04 20:26:16;;;;;;;2.45;1.30;;;1.40;99.90;;;;;;8186256;28;20047;-79
2023/02/04 20:30:25;;;;;;;1.00;0.90;;;1.60;99.90;;;;;;8218720;28;20039;-79
2023/02/04 20:34:26;;;;;;;1.85;0.63;;;1.70;99.90;;;;;;8202152;28;20095;-78
2023/02/04 20:38:26;;;;;;;3.00;1.10;;;1.40;99.90;;;;;;8200077;28;20034;-79
2023/02/04 20:42:29;;;;;;;5.38;1.00;;;1.10;99.90;;;;;;8202184;28;20031;-79
2023/02/04 20:46:30;;;;;;;2.38;1.13;;;1.00;99.90;;;;;;8197640;28;20031;-78
2023/02/04 20:50:37;;;;;;;5.97;2.08;;;0.90;99.90;;;;;;8191836;28;20034;-79
2023/02/04 20:54:37;;;;;;;6.05;2.15;;;0.90;99.90;;;;;;8220416;28;20042;-78
2023/02/04 20:58:44;;;;;;;3.42;1.83;;;1.00;99.90;;;;;;8220112;28;20118;-80
2023/02/04 21:02:44;;;;;;;4.15;2.35;;;1.10;99.90;;;;;;8215759;28;20487;-78
2023/02/04 21:06:49;;;;;;;3.70;2.08;;;1.10;99.90;;;;;;8217977;28;20037;-79
2023/02/04 21:10:50;;;;;;;2.90;1.83;;;1.30;99.90;;;;;;8222158;28;20046;-78
2023/02/04 21:14:50;;;;;;;5.38;2.45;;;1.10;99.90;;;;;;8215418;28;20090;-77